Aeroporto :
LOGIN :

Iscrizione | Disclaimer

   EN    FR    IT 

 










Sommario :    VFR   VFR Marginale   IFR   IFR Intensivo   IFR Molto Intensivo
Visibilità : 
Base nubi : 
>= 8 km
>= 3000ft
5 / 8 km
1000 / 3000 ft
1500m / 5 km
500 / 1000 ft
800 / 1500m
200 / 500 ft
< 800m
< 200 ft
Simboli :   Temporali  Nebbia  Neve Forte  Precipitazioni Forti  Vento > 20 kt
SIGMETs :   Varie  Temporali  Ghiacco  Turbolenza  Onda orograficha  Ceneri Vulcaniche







- Altitudine del aeroporto : 187 ft


ETNW - Wunstorf AB

ULTIMO METAR :
  • 200920Z AUTO 22011KT 6000 // ////// 26/14 Q1011 ///

METARs OBSOLETI :
  • 200820Z AUTO 21013KT 6000 // ////// 25/13 Q1011 ///
  • 200720Z AUTO 16008KT 6000 // ////// 23/15 Q1012 ///

TAF TAF ETNW
Valido dal 20 a 05 ore il 21 a 05 ore UTC


200400Z 2005/2105 19005KT 9999 NSW SCT080 BKN150
BECMG 2005/2007 16010KT 9999 NSW FEW070 SCT180
TEMPO 2013/2018 22015G25KT 4000 TSRA SCT012 BKN040CB
PROB30 2013/2018 VRB20G40KT 2000 TSRAGR SCT005 BKN020CB
BECMG 2018/2020 21005KT 9999 NSW FEW060 CANCEL BY ETGL
Nessun NOTAM noto per questo aeroporto.



MetMap, La meteo Aeronautica in un colpo d'occhio ! - Copyright ORBIFLY Dicembre 2007 - Disclaimer

ORBIFLY MET'MAP TEAM :

Programmazione e sviluppo : Alexandra Zaïnal
Concezione e sviluppo : Baudouin d'Aumeries
Co-Programmazione e sviluppo : Marc-Olivier Méhu
Supporto tecnico e logistico : Manuel Goepfert
Aiuto per la traduzione : Arnaldo La Scala

Contatto : metmap@orbifly.com




FONTI E CREDITI :

   NOAA